Vekso, Denmark
Current Conditions -  °F | °C
As of 6:50 PM on Sunday 21 Dec 2014 (Local Time) from EKRK Reporting Station
Light Rain Light Rain  
Wind Chill: 35°   Ceiling: 1100
Heat Index: 43°   Visibility: 6mi
Dew Point: 43°   Wind: 15mph
Humidity: 100%   Direction: 240°WSW
Pressure: 29.77"   Gusts: NA
Location:  55.75°N, 12.24°E
Report Text: EKRK 211750Z AUTO 24013KT 9999NDV -RA FEW007/// BKN011///OVC016/// 06/06 Q1008
Loading
Personal Weather Stations






























Interactive Weather Map New forecast layout! Learn more

10-Day Weather Forecast

Advertisements
Track Severe Weather on mobile